sensor_id;sensor_type;location;lat;lon;timestamp;pressure;altitude;pressure_sealevel;temperature
8362;BMP180;4218;48.326;14.304;2023-05-01T00:02:23;98522.00;;;8.40
8362;BMP180;4218;48.326;14.304;2023-05-01T00:04:48;98520.00;;;8.30
8362;BMP180;4218;48.326;14.304;2023-05-01T00:07:14;98521.00;;;8.30
8362;BMP180;4218;48.326;14.304;2023-05-01T00:09:40;98508.00;;;8.10
8362;BMP180;4218;48.326;14.304;2023-05-01T00:12:05;98509.00;;;8.20
8362;BMP180;4218;48.326;14.304;2023-05-01T00:14:30;98507.00;;;8.20
8362;BMP180;4218;48.326;14.304;2023-05-01T00:16:56;98512.00;;;8.10
8362;BMP180;4218;48.326;14.304;2023-05-01T00:19:21;98499.00;;;7.90
8362;BMP180;4218;48.326;14.304;2023-05-01T00:21:47;98514.00;;;8.00
8362;BMP180;4218;48.326;14.304;2023-05-01T00:24:15;98507.00;;;8.00
8362;BMP180;4218;48.326;14.304;2023-05-01T00:26:41;98507.00;;;7.90
8362;BMP180;4218;48.326;14.304;2023-05-01T00:29:06;98519.00;;;7.90
8362;BMP180;4218;48.326;14.304;2023-05-01T00:31:32;98495.00;;;7.80
8362;BMP180;4218;48.326;14.304;2023-05-01T00:33:58;98506.00;;;8.00
8362;BMP180;4218;48.326;14.304;2023-05-01T00:36:23;98493.00;;;7.90
8362;BMP180;4218;48.326;14.304;2023-05-01T00:38:49;98486.00;;;7.90
8362;BMP180;4218;48.326;14.304;2023-05-01T00:41:14;98499.00;;;8.10
8362;BMP180;4218;48.326;14.304;2023-05-01T00:43:40;98491.00;;;7.90
8362;BMP180;4218;48.326;14.304;2023-05-01T00:46:07;98488.00;;;8.00
8362;BMP180;4218;48.326;14.304;2023-05-01T00:48:32;98488.00;;;8.00
8362;BMP180;4218;48.326;14.304;2023-05-01T00:50:59;98490.00;;;8.00
8362;BMP180;4218;48.326;14.304;2023-05-01T00:53:25;98498.00;;;8.00
8362;BMP180;4218;48.326;14.304;2023-05-01T00:55:53;98488.00;;;7.90
8362;BMP180;4218;48.326;14.304;2023-05-01T00:58:20;98478.00;;;8.20
8362;BMP180;4218;48.326;14.304;2023-05-01T01:00:47;98481.00;;;8.20
8362;BMP180;4218;48.326;14.304;2023-05-01T01:03:13;98477.00;;;8.00
8362;BMP180;4218;48.326;14.304;2023-05-01T01:05:47;98471.00;;;8.10
8362;BMP180;4218;48.326;14.304;2023-05-01T01:08:22;98477.00;;;8.20
8362;BMP180;4218;48.326;14.304;2023-05-01T01:11:13;98477.00;;;8.50
8362;BMP180;4218;48.326;14.304;2023-05-01T01:14:14;98472.00;;;8.60
8362;BMP180;4218;48.326;14.304;2023-05-01T01:16:50;98463.00;;;8.70
8362;BMP180;4218;48.326;14.304;2023-05-01T01:22:06;98462.00;;;8.80
8362;BMP180;4218;48.326;14.304;2023-05-01T01:27:39;98462.00;;;8.60
8362;BMP180;4218;48.326;14.304;2023-05-01T01:35:33;98454.00;;;8.40
8362;BMP180;4218;48.326;14.304;2023-05-01T01:38:06;98456.00;;;8.20
8362;BMP180;4218;48.326;14.304;2023-05-01T01:41:00;98449.00;;;8.40
8362;BMP180;4218;48.326;14.304;2023-05-01T01:43:32;98448.00;;;8.50
8362;BMP180;4218;48.326;14.304;2023-05-01T01:46:01;98440.00;;;8.50
8362;BMP180;4218;48.326;14.304;2023-05-01T01:48:36;98445.00;;;8.70
8362;BMP180;4218;48.326;14.304;2023-05-01T01:51:06;98430.00;;;9.10
8362;BMP180;4218;48.326;14.304;2023-05-01T01:53:33;98434.00;;;9.00
8362;BMP180;4218;48.326;14.304;2023-05-01T01:56:01;98427.00;;;9.10
8362;BMP180;4218;48.326;14.304;2023-05-01T01:58:29;98416.00;;;9.10
8362;BMP180;4218;48.326;14.304;2023-05-01T02:00:56;98416.00;;;9.20
8362;BMP180;4218;48.326;14.304;2023-05-01T02:03:23;98423.00;;;9.10
8362;BMP180;4218;48.326;14.304;2023-05-01T02:05:50;98427.00;;;9.10
8362;BMP180;4218;48.326;14.304;2023-05-01T02:08:17;98428.00;;;9.10
8362;BMP180;4218;48.326;14.304;2023-05-01T02:10:44;98427.00;;;9.00
8362;BMP180;4218;48.326;14.304;2023-05-01T02:13:12;98403.00;;;8.80
8362;BMP180;4218;48.326;14.304;2023-05-01T02:15:39;98414.00;;;9.10
8362;BMP180;4218;48.326;14.304;2023-05-01T02:18:05;98399.00;;;9.20
8362;BMP180;4218;48.326;14.304;2023-05-01T02:20:31;98402.00;;;9.30
8362;BMP180;4218;48.326;14.304;2023-05-01T02:22:57;98401.00;;;9.60
8362;BMP180;4218;48.326;14.304;2023-05-01T02:25:23;98396.00;;;9.70
8362;BMP180;4218;48.326;14.304;2023-05-01T02:27:55;98396.00;;;9.80
8362;BMP180;4218;48.326;14.304;2023-05-01T02:30:20;98388.00;;;9.80
8362;BMP180;4218;48.326;14.304;2023-05-01T02:32:46;98392.00;;;9.90
8362;BMP180;4218;48.326;14.304;2023-05-01T02:35:11;98381.00;;;9.90
8362;BMP180;4218;48.326;14.304;2023-05-01T02:37:37;98369.00;;;9.90
8362;BMP180;4218;48.326;14.304;2023-05-01T02:40:06;98386.00;;;9.80
8362;BMP180;4218;48.326;14.304;2023-05-01T02:42:33;98377.00;;;9.90
8362;BMP180;4218;48.326;14.304;2023-05-01T02:45:02;98369.00;;;10.00
8362;BMP180;4218;48.326;14.304;2023-05-01T02:47:30;98381.00;;;9.80
8362;BMP180;4218;48.326;14.304;2023-05-01T02:49:58;98380.00;;;10.00
8362;BMP180;4218;48.326;14.304;2023-05-01T02:52:23;98369.00;;;10.00
8362;BMP180;4218;48.326;14.304;2023-05-01T02:54:49;98360.00;;;9.80
8362;BMP180;4218;48.326;14.304;2023-05-01T02:57:18;98366.00;;;9.90
8362;BMP180;4218;48.326;14.304;2023-05-01T02:59:45;98377.00;;;10.00
8362;BMP180;4218;48.326;14.304;2023-05-01T03:02:10;98364.00;;;10.00
8362;BMP180;4218;48.326;14.304;2023-05-01T03:04:36;98365.00;;;9.80
8362;BMP180;4218;48.326;14.304;2023-05-01T03:07:01;98372.00;;;9.80
8362;BMP180;4218;48.326;14.304;2023-05-01T03:09:29;98360.00;;;10.00
8362;BMP180;4218;48.326;14.304;2023-05-01T03:11:54;98357.00;;;10.00
8362;BMP180;4218;48.326;14.304;2023-05-01T03:14:20;98374.00;;;10.00
8362;BMP180;4218;48.326;14.304;2023-05-01T03:16:45;98365.00;;;9.70
8362;BMP180;4218;48.326;14.304;2023-05-01T03:19:10;98365.00;;;9.70
8362;BMP180;4218;48.326;14.304;2023-05-01T03:21:36;98367.00;;;9.70
8362;BMP180;4218;48.326;14.304;2023-05-01T03:24:01;98372.00;;;9.80
8362;BMP180;4218;48.326;14.304;2023-05-01T03:26:27;98376.00;;;9.70
8362;BMP180;4218;48.326;14.304;2023-05-01T03:28:52;98366.00;;;9.60
8362;BMP180;4218;48.326;14.304;2023-05-01T03:31:18;98367.00;;;9.60
8362;BMP180;4218;48.326;14.304;2023-05-01T03:33:43;98363.00;;;9.60
8362;BMP180;4218;48.326;14.304;2023-05-01T03:36:09;98371.00;;;9.50
8362;BMP180;4218;48.326;14.304;2023-05-01T03:38:37;98363.00;;;9.80
8362;BMP180;4218;48.326;14.304;2023-05-01T03:41:02;98366.00;;;9.80
8362;BMP180;4218;48.326;14.304;2023-05-01T03:43:29;98364.00;;;9.70
8362;BMP180;4218;48.326;14.304;2023-05-01T03:45:56;98363.00;;;9.70
8362;BMP180;4218;48.326;14.304;2023-05-01T03:48:21;98356.00;;;9.60
8362;BMP180;4218;48.326;14.304;2023-05-01T03:50:47;98356.00;;;9.50
8362;BMP180;4218;48.326;14.304;2023-05-01T03:53:13;98344.00;;;9.60
8362;BMP180;4218;48.326;14.304;2023-05-01T03:55:38;98345.00;;;9.60
8362;BMP180;4218;48.326;14.304;2023-05-01T03:58:05;98355.00;;;9.60
8362;BMP180;4218;48.326;14.304;2023-05-01T04:00:31;98352.00;;;9.60
8362;BMP180;4218;48.326;14.304;2023-05-01T04:02:56;98352.00;;;9.60
8362;BMP180;4218;48.326;14.304;2023-05-01T04:05:22;98356.00;;;9.80
8362;BMP180;4218;48.326;14.304;2023-05-01T04:07:47;98362.00;;;9.70
8362;BMP180;4218;48.326;14.304;2023-05-01T04:10:13;98353.00;;;9.90
8362;BMP180;4218;48.326;14.304;2023-05-01T04:12:38;98353.00;;;9.60
8362;BMP180;4218;48.326;14.304;2023-05-01T04:15:04;98361.00;;;9.90
8362;BMP180;4218;48.326;14.304;2023-05-01T04:17:30;98349.00;;;9.90
8362;BMP180;4218;48.326;14.304;2023-05-01T04:19:56;98344.00;;;10.00
8362;BMP180;4218;48.326;14.304;2023-05-01T04:22:21;98353.00;;;9.90
8362;BMP180;4218;48.326;14.304;2023-05-01T04:24:47;98345.00;;;10.20
8362;BMP180;4218;48.326;14.304;2023-05-01T04:27:13;98348.00;;;10.30
8362;BMP180;4218;48.326;14.304;2023-05-01T04:29:38;98346.00;;;10.00
8362;BMP180;4218;48.326;14.304;2023-05-01T04:32:04;98350.00;;;10.10
8362;BMP180;4218;48.326;14.304;2023-05-01T04:34:29;98339.00;;;9.90
8362;BMP180;4218;48.326;14.304;2023-05-01T04:36:57;98341.00;;;10.00
8362;BMP180;4218;48.326;14.304;2023-05-01T04:39:23;98337.00;;;10.10
8362;BMP180;4218;48.326;14.304;2023-05-01T04:41:49;98348.00;;;10.10
8362;BMP180;4218;48.326;14.304;2023-05-01T04:44:14;98345.00;;;10.30
8362;BMP180;4218;48.326;14.304;2023-05-01T04:46:39;98340.00;;;10.40
8362;BMP180;4218;48.326;14.304;2023-05-01T04:49:05;98340.00;;;10.50
8362;BMP180;4218;48.326;14.304;2023-05-01T04:51:30;98335.00;;;10.40
8362;BMP180;4218;48.326;14.304;2023-05-01T04:53:56;98339.00;;;10.60
8362;BMP180;4218;48.326;14.304;2023-05-01T04:56:21;98341.00;;;10.70
8362;BMP180;4218;48.326;14.304;2023-05-01T04:58:46;98335.00;;;10.80
8362;BMP180;4218;48.326;14.304;2023-05-01T05:01:12;98333.00;;;10.70
8362;BMP180;4218;48.326;14.304;2023-05-01T05:03:37;98328.00;;;10.70
8362;BMP180;4218;48.326;14.304;2023-05-01T05:06:03;98321.00;;;10.90
8362;BMP180;4218;48.326;14.304;2023-05-01T05:08:28;98333.00;;;11.00
8362;BMP180;4218;48.326;14.304;2023-05-01T05:10:57;98335.00;;;11.00
8362;BMP180;4218;48.326;14.304;2023-05-01T05:13:24;98316.00;;;11.00
8362;BMP180;4218;48.326;14.304;2023-05-01T05:15:49;98311.00;;;11.10
8362;BMP180;4218;48.326;14.304;2023-05-01T05:18:14;98321.00;;;11.20
8362;BMP180;4218;48.326;14.304;2023-05-01T05:20:40;98314.00;;;11.20
8362;BMP180;4218;48.326;14.304;2023-05-01T05:23:05;98310.00;;;11.20
8362;BMP180;4218;48.326;14.304;2023-05-01T05:25:31;98297.00;;;11.30
8362;BMP180;4218;48.326;14.304;2023-05-01T05:27:56;98306.00;;;11.20
8362;BMP180;4218;48.326;14.304;2023-05-01T05:30:23;98298.00;;;11.10
8362;BMP180;4218;48.326;14.304;2023-05-01T05:32:49;98297.00;;;11.30
8362;BMP180;4218;48.326;14.304;2023-05-01T05:35:14;98300.00;;;11.40
8362;BMP180;4218;48.326;14.304;2023-05-01T05:37:40;98292.00;;;11.40
8362;BMP180;4218;48.326;14.304;2023-05-01T05:40:06;98297.00;;;11.40
8362;BMP180;4218;48.326;14.304;2023-05-01T05:42:31;98295.00;;;11.40
8362;BMP180;4218;48.326;14.304;2023-05-01T05:44:56;98297.00;;;11.50
8362;BMP180;4218;48.326;14.304;2023-05-01T05:47:22;98300.00;;;11.70
8362;BMP180;4218;48.326;14.304;2023-05-01T05:49:49;98299.00;;;11.60
8362;BMP180;4218;48.326;14.304;2023-05-01T05:52:14;98294.00;;;11.80
8362;BMP180;4218;48.326;14.304;2023-05-01T05:54:40;98285.00;;;11.90
8362;BMP180;4218;48.326;14.304;2023-05-01T05:57:05;98282.00;;;12.00
8362;BMP180;4218;48.326;14.304;2023-05-01T05:59:31;98288.00;;;12.10
8362;BMP180;4218;48.326;14.304;2023-05-01T06:01:56;98285.00;;;12.20
8362;BMP180;4218;48.326;14.304;2023-05-01T06:04:22;98288.00;;;12.20
8362;BMP180;4218;48.326;14.304;2023-05-01T06:06:47;98292.00;;;12.40
8362;BMP180;4218;48.326;14.304;2023-05-01T06:09:13;98272.00;;;12.50
8362;BMP180;4218;48.326;14.304;2023-05-01T06:11:39;98271.00;;;12.70
8362;BMP180;4218;48.326;14.304;2023-05-01T06:14:04;98273.00;;;12.90
8362;BMP180;4218;48.326;14.304;2023-05-01T06:16:30;98270.00;;;12.80
8362;BMP180;4218;48.326;14.304;2023-05-01T06:18:55;98264.00;;;13.00
8362;BMP180;4218;48.326;14.304;2023-05-01T06:21:21;98265.00;;;13.20
8362;BMP180;4218;48.326;14.304;2023-05-01T06:23:46;98268.00;;;13.30
8362;BMP180;4218;48.326;14.304;2023-05-01T06:26:12;98279.00;;;13.40
8362;BMP180;4218;48.326;14.304;2023-05-01T06:28:37;98262.00;;;13.40
8362;BMP180;4218;48.326;14.304;2023-05-01T06:31:02;98264.00;;;13.40
8362;BMP180;4218;48.326;14.304;2023-05-01T06:33:28;98254.00;;;13.30
8362;BMP180;4218;48.326;14.304;2023-05-01T06:35:54;98259.00;;;13.40
8362;BMP180;4218;48.326;14.304;2023-05-01T06:38:19;98260.00;;;13.50
8362;BMP180;4218;48.326;14.304;2023-05-01T06:40:47;98255.00;;;13.60
8362;BMP180;4218;48.326;14.304;2023-05-01T06:43:12;98254.00;;;13.70
8362;BMP180;4218;48.326;14.304;2023-05-01T06:45:38;98250.00;;;13.90
8362;BMP180;4218;48.326;14.304;2023-05-01T06:48:05;98252.00;;;14.10
8362;BMP180;4218;48.326;14.304;2023-05-01T06:50:30;98245.00;;;14.20
8362;BMP180;4218;48.326;14.304;2023-05-01T06:52:56;98247.00;;;14.30
8362;BMP180;4218;48.326;14.304;2023-05-01T06:55:22;98245.00;;;14.50
8362;BMP180;4218;48.326;14.304;2023-05-01T06:57:48;98247.00;;;14.60
8362;BMP180;4218;48.326;14.304;2023-05-01T07:00:14;98245.00;;;14.80
8362;BMP180;4218;48.326;14.304;2023-05-01T07:02:40;98248.00;;;14.90
8362;BMP180;4218;48.326;14.304;2023-05-01T07:05:05;98242.00;;;15.00
8362;BMP180;4218;48.326;14.304;2023-05-01T07:07:31;98245.00;;;15.00
8362;BMP180;4218;48.326;14.304;2023-05-01T07:09:56;98236.00;;;15.10
8362;BMP180;4218;48.326;14.304;2023-05-01T07:12:22;98235.00;;;15.10
8362;BMP180;4218;48.326;14.304;2023-05-01T07:14:47;98235.00;;;15.00
8362;BMP180;4218;48.326;14.304;2023-05-01T07:17:13;98227.00;;;15.10
8362;BMP180;4218;48.326;14.304;2023-05-01T07:19:38;98234.00;;;15.30
8362;BMP180;4218;48.326;14.304;2023-05-01T07:22:03;98231.00;;;15.50
8362;BMP180;4218;48.326;14.304;2023-05-01T07:24:29;98220.00;;;15.60
8362;BMP180;4218;48.326;14.304;2023-05-01T07:26:54;98217.00;;;15.70
8362;BMP180;4218;48.326;14.304;2023-05-01T07:29:20;98210.00;;;15.70
8362;BMP180;4218;48.326;14.304;2023-05-01T07:31:46;98215.00;;;15.90
8362;BMP180;4218;48.326;14.304;2023-05-01T07:34:12;98217.00;;;16.10
8362;BMP180;4218;48.326;14.304;2023-05-01T07:36:37;98209.00;;;16.10
8362;BMP180;4218;48.326;14.304;2023-05-01T07:39:03;98209.00;;;16.20
8362;BMP180;4218;48.326;14.304;2023-05-01T07:41:30;98222.00;;;16.20
8362;BMP180;4218;48.326;14.304;2023-05-01T07:43:57;98214.00;;;16.20
8362;BMP180;4218;48.326;14.304;2023-05-01T07:46:23;98215.00;;;16.30
8362;BMP180;4218;48.326;14.304;2023-05-01T07:48:48;98223.00;;;16.30
8362;BMP180;4218;48.326;14.304;2023-05-01T07:51:14;98216.00;;;16.40
8362;BMP180;4218;48.326;14.304;2023-05-01T07:53:39;98223.00;;;16.50
8362;BMP180;4218;48.326;14.304;2023-05-01T07:56:07;98224.00;;;16.50
8362;BMP180;4218;48.326;14.304;2023-05-01T07:58:33;98230.00;;;16.40
8362;BMP180;4218;48.326;14.304;2023-05-01T08:01:00;98215.00;;;16.40
8362;BMP180;4218;48.326;14.304;2023-05-01T08:03:29;98224.00;;;16.40
8362;BMP180;4218;48.326;14.304;2023-05-01T08:05:56;98231.00;;;16.50
8362;BMP180;4218;48.326;14.304;2023-05-01T08:08:21;98228.00;;;16.40
8362;BMP180;4218;48.326;14.304;2023-05-01T08:10:47;98222.00;;;16.40
8362;BMP180;4218;48.326;14.304;2023-05-01T08:13:13;98234.00;;;16.50
8362;BMP180;4218;48.326;14.304;2023-05-01T08:15:38;98214.00;;;16.50
8362;BMP180;4218;48.326;14.304;2023-05-01T08:18:06;98213.00;;;16.50
8362;BMP180;4218;48.326;14.304;2023-05-01T08:20:32;98222.00;;;16.50
8362;BMP180;4218;48.326;14.304;2023-05-01T08:22:57;98213.00;;;16.70
8362;BMP180;4218;48.326;14.304;2023-05-01T08:25:23;98216.00;;;16.80
8362;BMP180;4218;48.326;14.304;2023-05-01T08:27:48;98218.00;;;16.90
8362;BMP180;4218;48.326;14.304;2023-05-01T08:30:14;98208.00;;;16.80
8362;BMP180;4218;48.326;14.304;2023-05-01T08:32:39;98214.00;;;16.70
8362;BMP180;4218;48.326;14.304;2023-05-01T08:35:05;98205.00;;;16.60
8362;BMP180;4218;48.326;14.304;2023-05-01T08:37:30;98216.00;;;16.70
8362;BMP180;4218;48.326;14.304;2023-05-01T08:39:55;98203.00;;;16.70
8362;BMP180;4218;48.326;14.304;2023-05-01T08:42:21;98214.00;;;16.60
8362;BMP180;4218;48.326;14.304;2023-05-01T08:44:46;98213.00;;;17.00
8362;BMP180;4218;48.326;14.304;2023-05-01T08:49:40;98210.00;;;16.90
8362;BMP180;4218;48.326;14.304;2023-05-01T08:52:06;98215.00;;;16.90
8362;BMP180;4218;48.326;14.304;2023-05-01T08:54:32;98210.00;;;16.90
8362;BMP180;4218;48.326;14.304;2023-05-01T08:57:02;98215.00;;;16.90
8362;BMP180;4218;48.326;14.304;2023-05-01T08:59:29;98195.00;;;17.00
8362;BMP180;4218;48.326;14.304;2023-05-01T09:01:59;98208.00;;;17.00
8362;BMP180;4218;48.326;14.304;2023-05-01T09:04:29;98204.00;;;17.00
8362;BMP180;4218;48.326;14.304;2023-05-01T09:06:57;98188.00;;;16.90
8362;BMP180;4218;48.326;14.304;2023-05-01T09:09:25;98189.00;;;17.00
8362;BMP180;4218;48.326;14.304;2023-05-01T09:11:52;98189.00;;;17.00
8362;BMP180;4218;48.326;14.304;2023-05-01T09:14:18;98192.00;;;17.10
8362;BMP180;4218;48.326;14.304;2023-05-01T09:16:43;98190.00;;;17.20
8362;BMP180;4218;48.326;14.304;2023-05-01T09:19:09;98187.00;;;17.30
8362;BMP180;4218;48.326;14.304;2023-05-01T09:21:34;98195.00;;;17.40
8362;BMP180;4218;48.326;14.304;2023-05-01T09:24:00;98183.00;;;17.40
8362;BMP180;4218;48.326;14.304;2023-05-01T09:26:26;98182.00;;;17.60
8362;BMP180;4218;48.326;14.304;2023-05-01T09:28:52;98178.00;;;17.70
8362;BMP180;4218;48.326;14.304;2023-05-01T09:31:25;98187.00;;;17.70
8362;BMP180;4218;48.326;14.304;2023-05-01T09:36:23;98172.00;;;17.90
8362;BMP180;4218;48.326;14.304;2023-05-01T09:38:49;98172.00;;;18.00
8362;BMP180;4218;48.326;14.304;2023-05-01T09:41:15;98185.00;;;18.00
8362;BMP180;4218;48.326;14.304;2023-05-01T09:43:51;98184.00;;;18.30
8362;BMP180;4218;48.326;14.304;2023-05-01T09:46:17;98178.00;;;18.30
8362;BMP180;4218;48.326;14.304;2023-05-01T09:48:56;98166.00;;;18.40
8362;BMP180;4218;48.326;14.304;2023-05-01T09:53:58;98175.00;;;18.50
8362;BMP180;4218;48.326;14.304;2023-05-01T09:56:29;98179.00;;;18.70
8362;BMP180;4218;48.326;14.304;2023-05-01T09:58:58;98171.00;;;18.60
8362;BMP180;4218;48.326;14.304;2023-05-01T10:01:41;98188.00;;;18.70
8362;BMP180;4218;48.326;14.304;2023-05-01T10:04:08;98182.00;;;18.60
8362;BMP180;4218;48.326;14.304;2023-05-01T10:06:37;98180.00;;;18.70
8362;BMP180;4218;48.326;14.304;2023-05-01T10:09:03;98176.00;;;18.60
8362;BMP180;4218;48.326;14.304;2023-05-01T10:11:46;98167.00;;;18.50
8362;BMP180;4218;48.326;14.304;2023-05-01T10:14:12;98173.00;;;18.50
8362;BMP180;4218;48.326;14.304;2023-05-01T10:16:38;98172.00;;;18.60
8362;BMP180;4218;48.326;14.304;2023-05-01T10:19:04;98165.00;;;18.50
8362;BMP180;4218;48.326;14.304;2023-05-01T10:21:31;98157.00;;;18.60
8362;BMP180;4218;48.326;14.304;2023-05-01T10:24:01;98159.00;;;18.70
8362;BMP180;4218;48.326;14.304;2023-05-01T10:26:28;98161.00;;;18.90
8362;BMP180;4218;48.326;14.304;2023-05-01T10:28:54;98160.00;;;19.10
8362;BMP180;4218;48.326;14.304;2023-05-01T10:31:23;98156.00;;;19.10
8362;BMP180;4218;48.326;14.304;2023-05-01T10:33:49;98149.00;;;19.00
8362;BMP180;4218;48.326;14.304;2023-05-01T10:36:24;98149.00;;;19.30
8362;BMP180;4218;48.326;14.304;2023-05-01T10:38:50;98148.00;;;19.40
8362;BMP180;4218;48.326;14.304;2023-05-01T10:41:16;98152.00;;;19.40
8362;BMP180;4218;48.326;14.304;2023-05-01T10:43:42;98153.00;;;19.50
8362;BMP180;4218;48.326;14.304;2023-05-01T10:51:14;98151.00;;;19.50
8362;BMP180;4218;48.326;14.304;2023-05-01T10:53:41;98142.00;;;19.30
8362;BMP180;4218;48.326;14.304;2023-05-01T11:01:37;98141.00;;;19.00
8362;BMP180;4218;48.326;14.304;2023-05-01T11:04:04;98147.00;;;18.90
8362;BMP180;4218;48.326;14.304;2023-05-01T11:06:32;98149.00;;;18.90
8362;BMP180;4218;48.326;14.304;2023-05-01T11:08:58;98142.00;;;19.30
8362;BMP180;4218;48.326;14.304;2023-05-01T11:13:59;98145.00;;;19.80
8362;BMP180;4218;48.326;14.304;2023-05-01T11:19:03;98129.00;;;20.00
8362;BMP180;4218;48.326;14.304;2023-05-01T11:21:29;98130.00;;;20.10
8362;BMP180;4218;48.326;14.304;2023-05-01T11:23:58;98130.00;;;20.30
8362;BMP180;4218;48.326;14.304;2023-05-01T11:26:24;98126.00;;;20.20
8362;BMP180;4218;48.326;14.304;2023-05-01T11:28:53;98124.00;;;20.20
8362;BMP180;4218;48.326;14.304;2023-05-01T11:31:19;98121.00;;;20.20
8362;BMP180;4218;48.326;14.304;2023-05-01T11:33:45;98118.00;;;20.30
8362;BMP180;4218;48.326;14.304;2023-05-01T11:36:11;98113.00;;;20.30
8362;BMP180;4218;48.326;14.304;2023-05-01T11:38:36;98109.00;;;20.20
8362;BMP180;4218;48.326;14.304;2023-05-01T11:41:03;98104.00;;;20.40
8362;BMP180;4218;48.326;14.304;2023-05-01T11:43:29;98116.00;;;20.30
8362;BMP180;4218;48.326;14.304;2023-05-01T11:45:55;98102.00;;;20.40
8362;BMP180;4218;48.326;14.304;2023-05-01T11:48:27;98095.00;;;20.20
8362;BMP180;4218;48.326;14.304;2023-05-01T11:50:52;98108.00;;;20.20
8362;BMP180;4218;48.326;14.304;2023-05-01T11:53:18;98098.00;;;20.10
8362;BMP180;4218;48.326;14.304;2023-05-01T11:55:44;98103.00;;;19.80
8362;BMP180;4218;48.326;14.304;2023-05-01T11:58:10;98108.00;;;19.90
8362;BMP180;4218;48.326;14.304;2023-05-01T12:00:36;98108.00;;;20.10
8362;BMP180;4218;48.326;14.304;2023-05-01T12:03:04;98095.00;;;20.20
8362;BMP180;4218;48.326;14.304;2023-05-01T12:05:34;98099.00;;;20.40
8362;BMP180;4218;48.326;14.304;2023-05-01T12:10:37;98101.00;;;20.80
8362;BMP180;4218;48.326;14.304;2023-05-01T12:13:03;98101.00;;;21.30
8362;BMP180;4218;48.326;14.304;2023-05-01T12:15:30;98100.00;;;21.30
8362;BMP180;4218;48.326;14.304;2023-05-01T12:17:56;98105.00;;;21.30
8362;BMP180;4218;48.326;14.304;2023-05-01T12:20:42;98100.00;;;21.20
8362;BMP180;4218;48.326;14.304;2023-05-01T12:23:10;98100.00;;;21.10
8362;BMP180;4218;48.326;14.304;2023-05-01T12:25:37;98093.00;;;20.90
8362;BMP180;4218;48.326;14.304;2023-05-01T12:28:07;98088.00;;;21.00
8362;BMP180;4218;48.326;14.304;2023-05-01T12:30:36;98086.00;;;21.20
8362;BMP180;4218;48.326;14.304;2023-05-01T12:33:16;98081.00;;;21.30
8362;BMP180;4218;48.326;14.304;2023-05-01T12:35:43;98070.00;;;21.40
8362;BMP180;4218;48.326;14.304;2023-05-01T12:38:20;98067.00;;;21.40
8362;BMP180;4218;48.326;14.304;2023-05-01T12:40:54;98061.00;;;21.30
8362;BMP180;4218;48.326;14.304;2023-05-01T12:43:26;98066.00;;;20.80
8362;BMP180;4218;48.326;14.304;2023-05-01T12:45:53;98051.00;;;20.80
8362;BMP180;4218;48.326;14.304;2023-05-01T12:48:19;98054.00;;;20.70
8362;BMP180;4218;48.326;14.304;2023-05-01T12:50:45;98059.00;;;20.50
8362;BMP180;4218;48.326;14.304;2023-05-01T12:53:18;98055.00;;;20.70
8362;BMP180;4218;48.326;14.304;2023-05-01T12:55:48;98050.00;;;20.80
8362;BMP180;4218;48.326;14.304;2023-05-01T12:58:14;98047.00;;;20.50
8362;BMP180;4218;48.326;14.304;2023-05-01T13:00:50;98058.00;;;20.90
8362;BMP180;4218;48.326;14.304;2023-05-01T13:03:24;98059.00;;;21.10
8362;BMP180;4218;48.326;14.304;2023-05-01T13:05:51;98056.00;;;20.80
8362;BMP180;4218;48.326;14.304;2023-05-01T13:08:31;98042.00;;;21.00
8362;BMP180;4218;48.326;14.304;2023-05-01T13:11:08;98033.00;;;20.80
8362;BMP180;4218;48.326;14.304;2023-05-01T13:13:34;98031.00;;;20.80
8362;BMP180;4218;48.326;14.304;2023-05-01T13:18:48;98035.00;;;21.20
8362;BMP180;4218;48.326;14.304;2023-05-01T13:21:15;98027.00;;;21.40
8362;BMP180;4218;48.326;14.304;2023-05-01T13:23:42;98028.00;;;21.40
8362;BMP180;4218;48.326;14.304;2023-05-01T13:26:15;98014.00;;;21.60
8362;BMP180;4218;48.326;14.304;2023-05-01T13:28:42;98017.00;;;21.80
8362;BMP180;4218;48.326;14.304;2023-05-01T13:31:14;98011.00;;;21.80
8362;BMP180;4218;48.326;14.304;2023-05-01T13:33:40;98009.00;;;21.80
8362;BMP180;4218;48.326;14.304;2023-05-01T13:36:12;98009.00;;;21.60
8362;BMP180;4218;48.326;14.304;2023-05-01T13:38:48;98013.00;;;21.40
8362;BMP180;4218;48.326;14.304;2023-05-01T13:41:16;98007.00;;;21.30
8362;BMP180;4218;48.326;14.304;2023-05-01T13:43:44;98011.00;;;21.20
8362;BMP180;4218;48.326;14.304;2023-05-01T13:46:10;98014.00;;;21.10
8362;BMP180;4218;48.326;14.304;2023-05-01T13:48:38;98015.00;;;21.00
8362;BMP180;4218;48.326;14.304;2023-05-01T13:51:05;98011.00;;;21.00
8362;BMP180;4218;48.326;14.304;2023-05-01T13:53:30;98009.00;;;20.80
8362;BMP180;4218;48.326;14.304;2023-05-01T13:55:56;98001.00;;;20.80
8362;BMP180;4218;48.326;14.304;2023-05-01T13:58:22;97996.00;;;20.90
8362;BMP180;4218;48.326;14.304;2023-05-01T14:00:47;98006.00;;;20.90
8362;BMP180;4218;48.326;14.304;2023-05-01T14:03:14;98004.00;;;21.00
8362;BMP180;4218;48.326;14.304;2023-05-01T14:05:40;98004.00;;;21.30
8362;BMP180;4218;48.326;14.304;2023-05-01T14:08:07;97999.00;;;21.30
8362;BMP180;4218;48.326;14.304;2023-05-01T14:10:35;97986.00;;;21.40
8362;BMP180;4218;48.326;14.304;2023-05-01T14:13:01;97995.00;;;21.20
8362;BMP180;4218;48.326;14.304;2023-05-01T14:15:27;97997.00;;;21.20
8362;BMP180;4218;48.326;14.304;2023-05-01T14:17:53;97988.00;;;21.10
8362;BMP180;4218;48.326;14.304;2023-05-01T14:20:18;97988.00;;;21.20
8362;BMP180;4218;48.326;14.304;2023-05-01T14:22:46;97982.00;;;20.90
8362;BMP180;4218;48.326;14.304;2023-05-01T14:25:21;97986.00;;;21.30
8362;BMP180;4218;48.326;14.304;2023-05-01T14:27:48;97985.00;;;21.20
8362;BMP180;4218;48.326;14.304;2023-05-01T14:30:23;97978.00;;;21.00
8362;BMP180;4218;48.326;14.304;2023-05-01T14:32:50;97974.00;;;21.10
8362;BMP180;4218;48.326;14.304;2023-05-01T14:35:19;97972.00;;;21.30
8362;BMP180;4218;48.326;14.304;2023-05-01T14:37:45;97973.00;;;21.20
8362;BMP180;4218;48.326;14.304;2023-05-01T14:40:11;97966.00;;;21.20
8362;BMP180;4218;48.326;14.304;2023-05-01T14:42:41;97978.00;;;21.10
8362;BMP180;4218;48.326;14.304;2023-05-01T14:45:09;97972.00;;;21.10
8362;BMP180;4218;48.326;14.304;2023-05-01T14:47:38;97973.00;;;21.30
8362;BMP180;4218;48.326;14.304;2023-05-01T14:50:04;97969.00;;;21.30
8362;BMP180;4218;48.326;14.304;2023-05-01T14:52:30;97961.00;;;20.90
8362;BMP180;4218;48.326;14.304;2023-05-01T14:54:56;97963.00;;;21.10
8362;BMP180;4218;48.326;14.304;2023-05-01T14:57:21;97956.00;;;21.10
8362;BMP180;4218;48.326;14.304;2023-05-01T14:59:46;97970.00;;;21.20
8362;BMP180;4218;48.326;14.304;2023-05-01T15:02:12;97971.00;;;21.00
8362;BMP180;4218;48.326;14.304;2023-05-01T15:04:37;97966.00;;;20.90